Pagrindinis puslapis
METAR-TAF:

METAR-TAF

Oro uostai :

Sørkjosen, Norvegija

platuma: 69-47N, ilguma: 020-58E, Aukštis: 0 m

Dabartinis oras

Ataskaita buvo paskelbta 35 minutes, ne 04:20 UTC
Vėjas 13 kt iš Vakarų
Temperatūra 12°C
Drėgmė 82%
Slėgis 1000 hPa
Matomumas 10 km arba daugiau
Mažai debesys ne aukštis 2000 ft
Su prošvaistėmis ne aukštis 4000 ft

METAR: ENSR 200420Z VRB04KT 9999 FEW020 BKN040 12/09 Q1000 WIND 1119FT 27013KT

Laikas: 06:55 (04:55 UTC)


TAF: trūkstamas

Orai ataskaitas ir orų prognozės (METAR, TAF).

turimą stotys yra geltonos ir raudonos taškus žemėlapyje.

Perkelti pele per norėdami pamatyti stoties vardą.

Tada spustelėkite, norėdami matyti oro stebėjimo ir prognozės.

Norėdami pakeisti žemėlapį: spustelėkite ant žalios mygtukų su juodo kryžiaus žemyn,; žalią mygtuką su brūkšneliu, jei norite nutolinti; arba žalių rodyklių gretimoms žemėlapius.


METAR-TAF: